sensor_id;sensor_type;location;lat;lon;timestamp;temperature;humidity
12602;DHT22;30282;16.436;99.370;2023-05-08T00:01:11;31.40;99.90
12602;DHT22;30282;16.436;99.370;2023-05-08T00:03:41;31.50;99.90
12602;DHT22;30282;16.436;99.370;2023-05-08T00:06:10;31.50;99.90
12602;DHT22;30282;16.436;99.370;2023-05-08T00:08:39;31.60;99.90
12602;DHT22;30282;16.436;99.370;2023-05-08T00:11:10;31.70;99.90
12602;DHT22;30282;16.436;99.370;2023-05-08T00:13:42;31.80;99.90
12602;DHT22;30282;16.436;99.370;2023-05-08T00:16:11;31.90;99.90
12602;DHT22;30282;16.436;99.370;2023-05-08T00:18:40;32.00;99.90
12602;DHT22;30282;16.436;99.370;2023-05-08T00:21:12;32.10;99.90
12602;DHT22;30282;16.436;99.370;2023-05-08T00:23:41;32.10;99.90
12602;DHT22;30282;16.436;99.370;2023-05-08T00:26:12;32.20;99.90
12602;DHT22;30282;16.436;99.370;2023-05-08T00:28:41;32.20;99.90
12602;DHT22;30282;16.436;99.370;2023-05-08T00:31:10;32.30;99.90
12602;DHT22;30282;16.436;99.370;2023-05-08T00:33:40;32.40;99.90
12602;DHT22;30282;16.436;99.370;2023-05-08T00:36:09;32.40;99.90
12602;DHT22;30282;16.436;99.370;2023-05-08T00:38:41;32.50;99.90
12602;DHT22;30282;16.436;99.370;2023-05-08T00:41:12;32.60;99.90
12602;DHT22;30282;16.436;99.370;2023-05-08T00:43:41;32.70;99.90
12602;DHT22;30282;16.436;99.370;2023-05-08T00:46:11;32.70;99.90
12602;DHT22;30282;16.436;99.370;2023-05-08T00:48:40;32.80;99.90
12602;DHT22;30282;16.436;99.370;2023-05-08T00:51:10;32.90;99.90
12602;DHT22;30282;16.436;99.370;2023-05-08T00:53:41;32.90;99.90
12602;DHT22;30282;16.436;99.370;2023-05-08T00:56:13;33.00;99.90
12602;DHT22;30282;16.436;99.370;2023-05-08T00:58:43;33.00;99.90
12602;DHT22;30282;16.436;99.370;2023-05-08T01:01:14;33.10;99.90
12602;DHT22;30282;16.436;99.370;2023-05-08T01:03:43;33.10;99.90
12602;DHT22;30282;16.436;99.370;2023-05-08T01:06:12;33.30;99.90
12602;DHT22;30282;16.436;99.370;2023-05-08T01:08:43;33.30;99.90
12602;DHT22;30282;16.436;99.370;2023-05-08T01:11:19;33.30;99.90
12602;DHT22;30282;16.436;99.370;2023-05-08T01:13:59;33.40;99.90
12602;DHT22;30282;16.436;99.370;2023-05-08T01:16:37;33.50;99.90
12602;DHT22;30282;16.436;99.370;2023-05-08T01:22:11;33.40;99.90
12602;DHT22;30282;16.436;99.370;2023-05-08T01:28:14;33.70;99.90
12602;DHT22;30282;16.436;99.370;2023-05-08T01:30:59;33.70;99.90
12602;DHT22;30282;16.436;99.370;2023-05-08T01:33:35;33.80;99.90
12602;DHT22;30282;16.436;99.370;2023-05-08T01:36:16;34.00;99.90
12602;DHT22;30282;16.436;99.370;2023-05-08T01:38:54;34.00;99.90
12602;DHT22;30282;16.436;99.370;2023-05-08T01:41:27;34.00;99.90
12602;DHT22;30282;16.436;99.370;2023-05-08T01:44:08;34.20;99.90
12602;DHT22;30282;16.436;99.370;2023-05-08T01:46:39;34.20;99.90
12602;DHT22;30282;16.436;99.370;2023-05-08T01:49:19;34.30;99.90
12602;DHT22;30282;16.436;99.370;2023-05-08T01:51:58;34.30;99.90
12602;DHT22;30282;16.436;99.370;2023-05-08T01:54:32;34.30;99.90
12602;DHT22;30282;16.436;99.370;2023-05-08T01:57:04;34.40;99.90
12602;DHT22;30282;16.436;99.370;2023-05-08T01:59:36;34.50;99.90
12602;DHT22;30282;16.436;99.370;2023-05-08T02:02:06;34.60;99.90
12602;DHT22;30282;16.436;99.370;2023-05-08T02:04:40;34.60;99.90
12602;DHT22;30282;16.436;99.370;2023-05-08T02:07:09;34.70;99.90
12602;DHT22;30282;16.436;99.370;2023-05-08T02:09:44;34.70;99.90
12602;DHT22;30282;16.436;99.370;2023-05-08T02:12:16;34.70;99.90
12602;DHT22;30282;16.436;99.370;2023-05-08T02:14:49;34.80;99.90
12602;DHT22;30282;16.436;99.370;2023-05-08T02:17:20;34.90;99.90
12602;DHT22;30282;16.436;99.370;2023-05-08T02:19:52;35.00;99.90
12602;DHT22;30282;16.436;99.370;2023-05-08T02:22:23;35.20;99.90
12602;DHT22;30282;16.436;99.370;2023-05-08T02:24:53;35.20;99.90
12602;DHT22;30282;16.436;99.370;2023-05-08T02:27:24;35.30;99.90
12602;DHT22;30282;16.436;99.370;2023-05-08T02:29:54;35.40;99.90
12602;DHT22;30282;16.436;99.370;2023-05-08T02:32:25;35.50;99.90
12602;DHT22;30282;16.436;99.370;2023-05-08T02:34:56;35.50;99.90
12602;DHT22;30282;16.436;99.370;2023-05-08T02:37:27;35.60;99.90
12602;DHT22;30282;16.436;99.370;2023-05-08T02:39:57;35.40;99.90
12602;DHT22;30282;16.436;99.370;2023-05-08T02:42:26;35.50;99.90
12602;DHT22;30282;16.436;99.370;2023-05-08T02:44:56;35.60;99.90
12602;DHT22;30282;16.436;99.370;2023-05-08T02:47:28;35.70;99.90
12602;DHT22;30282;16.436;99.370;2023-05-08T02:50:02;35.80;99.90
12602;DHT22;30282;16.436;99.370;2023-05-08T02:52:37;35.90;99.90
12602;DHT22;30282;16.436;99.370;2023-05-08T02:55:24;36.00;99.90
12602;DHT22;30282;16.436;99.370;2023-05-08T02:58:03;36.00;99.90
12602;DHT22;30282;16.436;99.370;2023-05-08T03:00:41;36.00;99.90
12602;DHT22;30282;16.436;99.370;2023-05-08T03:03:18;36.00;99.90
12602;DHT22;30282;16.436;99.370;2023-05-08T03:05:51;36.00;99.90
12602;DHT22;30282;16.436;99.370;2023-05-08T03:08:25;36.00;99.90
12602;DHT22;30282;16.436;99.370;2023-05-08T03:10:58;36.00;99.90
12602;DHT22;30282;16.436;99.370;2023-05-08T03:13:35;36.00;99.90
12602;DHT22;30282;16.436;99.370;2023-05-08T03:16:10;36.00;99.90
12602;DHT22;30282;16.436;99.370;2023-05-08T03:18:46;36.10;99.90
12602;DHT22;30282;16.436;99.370;2023-05-08T03:21:20;36.20;99.90
12602;DHT22;30282;16.436;99.370;2023-05-08T03:23:52;36.30;99.90
12602;DHT22;30282;16.436;99.370;2023-05-08T03:26:25;36.50;99.90
12602;DHT22;30282;16.436;99.370;2023-05-08T03:28:56;36.50;99.90
12602;DHT22;30282;16.436;99.370;2023-05-08T03:31:31;36.60;99.90
12602;DHT22;30282;16.436;99.370;2023-05-08T03:34:01;36.80;99.90
12602;DHT22;30282;16.436;99.370;2023-05-08T03:36:32;36.90;99.90
12602;DHT22;30282;16.436;99.370;2023-05-08T03:39:02;37.00;99.90
12602;DHT22;30282;16.436;99.370;2023-05-08T03:41:31;37.00;99.90
12602;DHT22;30282;16.436;99.370;2023-05-08T03:44:02;37.10;99.90
12602;DHT22;30282;16.436;99.370;2023-05-08T03:46:31;37.00;99.90
12602;DHT22;30282;16.436;99.370;2023-05-08T03:49:03;37.00;99.90
12602;DHT22;30282;16.436;99.370;2023-05-08T03:51:37;37.00;99.90
12602;DHT22;30282;16.436;99.370;2023-05-08T03:54:06;37.10;99.90
12602;DHT22;30282;16.436;99.370;2023-05-08T03:56:35;37.20;99.90
12602;DHT22;30282;16.436;99.370;2023-05-08T03:59:12;37.40;99.90
12602;DHT22;30282;16.436;99.370;2023-05-08T04:01:49;37.60;99.90
12602;DHT22;30282;16.436;99.370;2023-05-08T04:04:25;37.70;99.90
12602;DHT22;30282;16.436;99.370;2023-05-08T04:07:05;37.80;99.90
12602;DHT22;30282;16.436;99.370;2023-05-08T04:09:41;37.90;99.90
12602;DHT22;30282;16.436;99.370;2023-05-08T04:12:17;38.00;99.90
12602;DHT22;30282;16.436;99.370;2023-05-08T04:14:51;38.10;99.90
12602;DHT22;30282;16.436;99.370;2023-05-08T04:17:28;38.20;99.90
12602;DHT22;30282;16.436;99.370;2023-05-08T04:20:03;38.20;99.90
12602;DHT22;30282;16.436;99.370;2023-05-08T04:22:35;38.20;99.90
12602;DHT22;30282;16.436;99.370;2023-05-08T04:25:08;38.30;99.90
12602;DHT22;30282;16.436;99.370;2023-05-08T04:27:39;38.30;99.90
12602;DHT22;30282;16.436;99.370;2023-05-08T04:30:10;38.30;99.90
12602;DHT22;30282;16.436;99.370;2023-05-08T04:32:40;38.30;99.90
12602;DHT22;30282;16.436;99.370;2023-05-08T04:35:10;38.30;99.90
12602;DHT22;30282;16.436;99.370;2023-05-08T04:37:41;38.30;99.90
12602;DHT22;30282;16.436;99.370;2023-05-08T04:40:12;38.40;99.90
12602;DHT22;30282;16.436;99.370;2023-05-08T04:42:41;38.50;99.90
12602;DHT22;30282;16.436;99.370;2023-05-08T04:45:13;38.50;99.90
12602;DHT22;30282;16.436;99.370;2023-05-08T04:47:54;38.50;99.90
12602;DHT22;30282;16.436;99.370;2023-05-08T04:50:24;38.40;99.90
12602;DHT22;30282;16.436;99.370;2023-05-08T04:52:55;38.50;99.90
12602;DHT22;30282;16.436;99.370;2023-05-08T04:55:25;38.60;99.90
12602;DHT22;30282;16.436;99.370;2023-05-08T04:57:54;38.50;99.90
12602;DHT22;30282;16.436;99.370;2023-05-08T05:00:23;38.50;99.90
12602;DHT22;30282;16.436;99.370;2023-05-08T05:02:53;38.40;99.90
12602;DHT22;30282;16.436;99.370;2023-05-08T05:05:22;38.50;99.90
12602;DHT22;30282;16.436;99.370;2023-05-08T05:07:53;38.60;99.90
12602;DHT22;30282;16.436;99.370;2023-05-08T05:10:22;38.70;99.90
12602;DHT22;30282;16.436;99.370;2023-05-08T05:12:52;38.80;99.90
12602;DHT22;30282;16.436;99.370;2023-05-08T05:15:21;38.90;99.90
12602;DHT22;30282;16.436;99.370;2023-05-08T05:17:50;39.00;99.90
12602;DHT22;30282;16.436;99.370;2023-05-08T05:20:20;38.90;99.90
12602;DHT22;30282;16.436;99.370;2023-05-08T05:22:49;38.90;99.90
12602;DHT22;30282;16.436;99.370;2023-05-08T05:25:20;38.90;99.90
12602;DHT22;30282;16.436;99.370;2023-05-08T05:27:50;38.90;99.90
12602;DHT22;30282;16.436;99.370;2023-05-08T05:30:19;38.90;99.90
12602;DHT22;30282;16.436;99.370;2023-05-08T05:32:49;39.00;99.90
12602;DHT22;30282;16.436;99.370;2023-05-08T05:35:18;39.10;99.90
12602;DHT22;30282;16.436;99.370;2023-05-08T05:37:47;39.10;99.90
12602;DHT22;30282;16.436;99.370;2023-05-08T05:40:17;39.10;99.90
12602;DHT22;30282;16.436;99.370;2023-05-08T05:42:50;39.10;99.90
12602;DHT22;30282;16.436;99.370;2023-05-08T05:45:20;39.10;99.90
12602;DHT22;30282;16.436;99.370;2023-05-08T05:47:49;39.30;99.90
12602;DHT22;30282;16.436;99.370;2023-05-08T05:50:20;39.30;99.90
12602;DHT22;30282;16.436;99.370;2023-05-08T05:52:50;39.30;99.90
12602;DHT22;30282;16.436;99.370;2023-05-08T05:55:21;39.30;99.90
12602;DHT22;30282;16.436;99.370;2023-05-08T05:57:53;39.20;99.90
12602;DHT22;30282;16.436;99.370;2023-05-08T06:00:22;39.20;99.90
12602;DHT22;30282;16.436;99.370;2023-05-08T06:02:51;39.20;99.90
12602;DHT22;30282;16.436;99.370;2023-05-08T06:05:21;39.20;99.90
12602;DHT22;30282;16.436;99.370;2023-05-08T06:07:50;39.30;99.90
12602;DHT22;30282;16.436;99.370;2023-05-08T06:10:20;39.30;99.90
12602;DHT22;30282;16.436;99.370;2023-05-08T06:12:51;39.20;99.90
12602;DHT22;30282;16.436;99.370;2023-05-08T06:15:20;39.20;99.90
12602;DHT22;30282;16.436;99.370;2023-05-08T06:17:50;39.20;99.90
12602;DHT22;30282;16.436;99.370;2023-05-08T06:20:20;39.40;99.90
12602;DHT22;30282;16.436;99.370;2023-05-08T06:22:49;39.30;99.90
12602;DHT22;30282;16.436;99.370;2023-05-08T06:25:19;39.30;99.90
12602;DHT22;30282;16.436;99.370;2023-05-08T06:27:48;39.40;99.90
12602;DHT22;30282;16.436;99.370;2023-05-08T06:30:19;39.30;99.90
12602;DHT22;30282;16.436;99.370;2023-05-08T06:32:48;39.40;99.90
12602;DHT22;30282;16.436;99.370;2023-05-08T06:35:18;39.40;99.90
12602;DHT22;30282;16.436;99.370;2023-05-08T06:37:50;39.40;99.90
12602;DHT22;30282;16.436;99.370;2023-05-08T06:40:20;39.50;99.90
12602;DHT22;30282;16.436;99.370;2023-05-08T06:42:49;39.50;99.90
12602;DHT22;30282;16.436;99.370;2023-05-08T06:45:20;39.50;99.90
12602;DHT22;30282;16.436;99.370;2023-05-08T06:47:50;39.60;99.90
12602;DHT22;30282;16.436;99.370;2023-05-08T06:50:19;39.60;99.90
12602;DHT22;30282;16.436;99.370;2023-05-08T06:52:51;39.70;99.90
12602;DHT22;30282;16.436;99.370;2023-05-08T06:55:20;39.70;99.90
12602;DHT22;30282;16.436;99.370;2023-05-08T06:57:50;39.70;99.90
12602;DHT22;30282;16.436;99.370;2023-05-08T07:00:21;39.70;99.90
12602;DHT22;30282;16.436;99.370;2023-05-08T07:02:51;39.70;99.90
12602;DHT22;30282;16.436;99.370;2023-05-08T07:05:20;39.70;99.90
12602;DHT22;30282;16.436;99.370;2023-05-08T07:07:50;39.60;99.90
12602;DHT22;30282;16.436;99.370;2023-05-08T07:10:20;39.60;99.90
12602;DHT22;30282;16.436;99.370;2023-05-08T07:12:49;39.50;99.90
12602;DHT22;30282;16.436;99.370;2023-05-08T07:15:21;39.50;99.90
12602;DHT22;30282;16.436;99.370;2023-05-08T07:17:50;39.50;99.90
12602;DHT22;30282;16.436;99.370;2023-05-08T07:20:20;39.30;99.90
12602;DHT22;30282;16.436;99.370;2023-05-08T07:22:50;39.50;99.90
12602;DHT22;30282;16.436;99.370;2023-05-08T07:25:19;39.40;99.90
12602;DHT22;30282;16.436;99.370;2023-05-08T07:27:48;39.40;99.90
12602;DHT22;30282;16.436;99.370;2023-05-08T07:30:18;39.50;99.90
12602;DHT22;30282;16.436;99.370;2023-05-08T07:32:49;39.50;99.90
12602;DHT22;30282;16.436;99.370;2023-05-08T07:35:21;39.60;99.90
12602;DHT22;30282;16.436;99.370;2023-05-08T07:37:50;39.60;99.90
12602;DHT22;30282;16.436;99.370;2023-05-08T07:40:20;39.50;99.90
12602;DHT22;30282;16.436;99.370;2023-05-08T07:42:49;39.50;99.90
12602;DHT22;30282;16.436;99.370;2023-05-08T07:45:19;39.60;99.90
12602;DHT22;30282;16.436;99.370;2023-05-08T07:47:55;39.50;99.90
12602;DHT22;30282;16.436;99.370;2023-05-08T07:50:25;39.50;99.90
12602;DHT22;30282;16.436;99.370;2023-05-08T07:52:58;39.60;99.90
12602;DHT22;30282;16.436;99.370;2023-05-08T07:55:27;39.50;99.90
12602;DHT22;30282;16.436;99.370;2023-05-08T07:57:57;39.50;99.90
12602;DHT22;30282;16.436;99.370;2023-05-08T08:00:26;39.50;99.90
12602;DHT22;30282;16.436;99.370;2023-05-08T08:02:57;39.50;99.90
12602;DHT22;30282;16.436;99.370;2023-05-08T08:05:26;39.40;99.90
12602;DHT22;30282;16.436;99.370;2023-05-08T08:07:56;39.50;99.90
12602;DHT22;30282;16.436;99.370;2023-05-08T08:10:25;39.50;99.90
12602;DHT22;30282;16.436;99.370;2023-05-08T08:12:55;39.50;99.90
12602;DHT22;30282;16.436;99.370;2023-05-08T08:15:24;39.50;99.90
12602;DHT22;30282;16.436;99.370;2023-05-08T08:17:58;39.40;99.90
12602;DHT22;30282;16.436;99.370;2023-05-08T08:20:28;39.50;99.90
12602;DHT22;30282;16.436;99.370;2023-05-08T08:22:57;39.40;99.90
12602;DHT22;30282;16.436;99.370;2023-05-08T08:25:26;39.60;99.90
12602;DHT22;30282;16.436;99.370;2023-05-08T08:27:56;39.60;99.90
12602;DHT22;30282;16.436;99.370;2023-05-08T08:30:25;39.70;99.90
12602;DHT22;30282;16.436;99.370;2023-05-08T08:32:56;39.50;99.90
12602;DHT22;30282;16.436;99.370;2023-05-08T08:35:28;39.50;99.90
12602;DHT22;30282;16.436;99.370;2023-05-08T08:37:57;39.40;99.90
12602;DHT22;30282;16.436;99.370;2023-05-08T08:40:27;39.40;99.90
12602;DHT22;30282;16.436;99.370;2023-05-08T08:42:57;39.40;99.90
12602;DHT22;30282;16.436;99.370;2023-05-08T08:45:27;39.50;99.90
12602;DHT22;30282;16.436;99.370;2023-05-08T08:48:00;39.50;99.90
12602;DHT22;30282;16.436;99.370;2023-05-08T08:50:31;39.50;99.90
12602;DHT22;30282;16.436;99.370;2023-05-08T08:53:06;39.50;99.90
12602;DHT22;30282;16.436;99.370;2023-05-08T08:55:39;39.50;99.90
12602;DHT22;30282;16.436;99.370;2023-05-08T08:58:17;39.40;99.90
12602;DHT22;30282;16.436;99.370;2023-05-08T09:00:49;39.50;99.90
12602;DHT22;30282;16.436;99.370;2023-05-08T09:03:22;39.40;99.90
12602;DHT22;30282;16.436;99.370;2023-05-08T09:05:51;39.40;99.90
12602;DHT22;30282;16.436;99.370;2023-05-08T09:08:21;39.40;99.90
12602;DHT22;30282;16.436;99.370;2023-05-08T09:10:52;39.40;99.90
12602;DHT22;30282;16.436;99.370;2023-05-08T09:13:22;39.10;99.90
12602;DHT22;30282;16.436;99.370;2023-05-08T09:15:52;39.10;99.90
12602;DHT22;30282;16.436;99.370;2023-05-08T09:18:23;39.10;99.90
12602;DHT22;30282;16.436;99.370;2023-05-08T09:20:52;39.20;99.90
12602;DHT22;30282;16.436;99.370;2023-05-08T09:23:22;39.20;99.90
12602;DHT22;30282;16.436;99.370;2023-05-08T09:25:52;39.20;99.90
12602;DHT22;30282;16.436;99.370;2023-05-08T09:28:22;39.20;99.90
12602;DHT22;30282;16.436;99.370;2023-05-08T09:30:52;39.10;99.90
12602;DHT22;30282;16.436;99.370;2023-05-08T09:33:25;39.10;99.90
12602;DHT22;30282;16.436;99.370;2023-05-08T09:35:55;38.90;99.90
12602;DHT22;30282;16.436;99.370;2023-05-08T09:38:34;38.70;99.90
12602;DHT22;30282;16.436;99.370;2023-05-08T09:41:11;38.60;99.90
12602;DHT22;30282;16.436;99.370;2023-05-08T09:43:41;38.60;99.90
12602;DHT22;30282;16.436;99.370;2023-05-08T09:46:24;38.50;99.90
12602;DHT22;30282;16.436;99.370;2023-05-08T09:48:56;38.50;99.90
12602;DHT22;30282;16.436;99.370;2023-05-08T09:51:28;38.50;99.90
12602;DHT22;30282;16.436;99.370;2023-05-08T09:53:59;38.30;99.90
12602;DHT22;30282;16.436;99.370;2023-05-08T09:56:32;38.30;99.90
12602;DHT22;30282;16.436;99.370;2023-05-08T09:59:22;38.20;99.90
12602;DHT22;30282;16.436;99.370;2023-05-08T10:01:52;38.00;99.90
12602;DHT22;30282;16.436;99.370;2023-05-08T10:04:33;38.00;99.90
12602;DHT22;30282;16.436;99.370;2023-05-08T10:07:03;37.80;99.90
12602;DHT22;30282;16.436;99.370;2023-05-08T10:09:33;36.30;99.90
12602;DHT22;30282;16.436;99.370;2023-05-08T10:12:04;35.40;99.90
12602;DHT22;30282;16.436;99.370;2023-05-08T10:14:33;34.70;99.90
12602;DHT22;30282;16.436;99.370;2023-05-08T10:17:05;34.10;99.90
12602;DHT22;30282;16.436;99.370;2023-05-08T10:19:40;33.70;99.90
12602;DHT22;30282;16.436;99.370;2023-05-08T10:22:13;33.50;99.90
12602;DHT22;30282;16.436;99.370;2023-05-08T10:24:44;33.40;99.90
12602;DHT22;30282;16.436;99.370;2023-05-08T10:27:22;33.40;99.90
12602;DHT22;30282;16.436;99.370;2023-05-08T10:30:04;33.40;99.90
12602;DHT22;30282;16.436;99.370;2023-05-08T10:32:43;33.60;99.90
12602;DHT22;30282;16.436;99.370;2023-05-08T10:35:15;33.80;99.90
12602;DHT22;30282;16.436;99.370;2023-05-08T10:37:45;33.90;99.90
12602;DHT22;30282;16.436;99.370;2023-05-08T10:40:15;34.00;99.90
12602;DHT22;30282;16.436;99.370;2023-05-08T10:42:46;34.10;99.90
12602;DHT22;30282;16.436;99.370;2023-05-08T10:45:16;34.20;99.90
12602;DHT22;30282;16.436;99.370;2023-05-08T10:47:52;34.30;99.90
12602;DHT22;30282;16.436;99.370;2023-05-08T10:50:35;34.40;99.90
12602;DHT22;30282;16.436;99.370;2023-05-08T10:53:10;34.30;99.90
12602;DHT22;30282;16.436;99.370;2023-05-08T10:55:44;34.10;99.90
12602;DHT22;30282;16.436;99.370;2023-05-08T10:58:14;34.00;99.90
12602;DHT22;30282;16.436;99.370;2023-05-08T11:01:11;33.90;99.90
12602;DHT22;30282;16.436;99.370;2023-05-08T11:03:45;33.80;99.90
12602;DHT22;30282;16.436;99.370;2023-05-08T11:06:40;33.70;99.90
12602;DHT22;30282;16.436;99.370;2023-05-08T11:09:07;33.50;99.90
12602;DHT22;30282;16.436;99.370;2023-05-08T11:11:38;33.30;99.90
12602;DHT22;30282;16.436;99.370;2023-05-08T11:14:12;33.20;99.90
12602;DHT22;30282;16.436;99.370;2023-05-08T11:17:14;33.10;99.90
12602;DHT22;30282;16.436;99.370;2023-05-08T11:19:57;32.80;99.90
12602;DHT22;30282;16.436;99.370;2023-05-08T11:22:30;32.60;99.90
12602;DHT22;30282;16.436;99.370;2023-05-08T11:25:01;32.40;99.90
12602;DHT22;30282;16.436;99.370;2023-05-08T11:27:38;32.20;99.90
12602;DHT22;30282;16.436;99.370;2023-05-08T11:30:25;32.10;99.90
12602;DHT22;30282;16.436;99.370;2023-05-08T11:32:58;32.00;99.90
12602;DHT22;30282;16.436;99.370;2023-05-08T11:35:49;31.90;99.90
12602;DHT22;30282;16.436;99.370;2023-05-08T11:38:21;31.70;99.90
12602;DHT22;30282;16.436;99.370;2023-05-08T11:41:01;31.10;99.90
12602;DHT22;30282;16.436;99.370;2023-05-08T11:44:05;30.70;99.90
12602;DHT22;30282;16.436;99.370;2023-05-08T11:46:47;30.20;99.90
12602;DHT22;30282;16.436;99.370;2023-05-08T11:49:18;30.10;99.90
12602;DHT22;30282;16.436;99.370;2023-05-08T11:51:49;30.40;99.90
12602;DHT22;30282;16.436;99.370;2023-05-08T11:54:22;30.50;99.90
12602;DHT22;30282;16.436;99.370;2023-05-08T11:56:53;30.60;99.90
12602;DHT22;30282;16.436;99.370;2023-05-08T11:59:26;30.70;99.90
12602;DHT22;30282;16.436;99.370;2023-05-08T12:01:55;30.70;99.90
12602;DHT22;30282;16.436;99.370;2023-05-08T12:04:26;30.70;99.90
12602;DHT22;30282;16.436;99.370;2023-05-08T12:06:57;30.70;99.90
12602;DHT22;30282;16.436;99.370;2023-05-08T12:09:29;30.40;99.90
12602;DHT22;30282;16.436;99.370;2023-05-08T12:11:58;29.90;99.90
12602;DHT22;30282;16.436;99.370;2023-05-08T12:14:27;29.60;99.90
12602;DHT22;30282;16.436;99.370;2023-05-08T12:16:56;29.50;99.90
12602;DHT22;30282;16.436;99.370;2023-05-08T12:19:25;29.70;99.90
12602;DHT22;30282;16.436;99.370;2023-05-08T12:21:56;30.00;99.90
12602;DHT22;30282;16.436;99.370;2023-05-08T12:24:27;30.20;99.90
12602;DHT22;30282;16.436;99.370;2023-05-08T12:26:56;30.40;99.90
12602;DHT22;30282;16.436;99.370;2023-05-08T12:29:26;30.50;99.90
12602;DHT22;30282;16.436;99.370;2023-05-08T12:31:55;30.60;99.90
12602;DHT22;30282;16.436;99.370;2023-05-08T12:34:25;30.50;99.90
12602;DHT22;30282;16.436;99.370;2023-05-08T12:37:04;30.50;99.90
12602;DHT22;30282;16.436;99.370;2023-05-08T12:39:44;30.50;99.90
12602;DHT22;30282;16.436;99.370;2023-05-08T12:42:13;30.40;99.90
12602;DHT22;30282;16.436;99.370;2023-05-08T12:44:49;30.10;99.90
12602;DHT22;30282;16.436;99.370;2023-05-08T12:47:19;30.10;99.90
12602;DHT22;30282;16.436;99.370;2023-05-08T12:49:49;29.80;99.90
12602;DHT22;30282;16.436;99.370;2023-05-08T12:52:18;29.50;99.90
12602;DHT22;30282;16.436;99.370;2023-05-08T12:54:50;29.30;99.90
12602;DHT22;30282;16.436;99.370;2023-05-08T12:57:20;29.10;99.90
12602;DHT22;30282;16.436;99.370;2023-05-08T12:59:50;29.00;99.90
12602;DHT22;30282;16.436;99.370;2023-05-08T13:02:30;29.10;99.90
12602;DHT22;30282;16.436;99.370;2023-05-08T13:05:00;29.30;99.90
12602;DHT22;30282;16.436;99.370;2023-05-08T13:07:32;29.20;99.90
12602;DHT22;30282;16.436;99.370;2023-05-08T13:10:03;29.20;99.90
12602;DHT22;30282;16.436;99.370;2023-05-08T13:12:33;29.20;99.90
12602;DHT22;30282;16.436;99.370;2023-05-08T13:15:03;29.20;99.90
12602;DHT22;30282;16.436;99.370;2023-05-08T13:17:33;29.30;99.90
12602;DHT22;30282;16.436;99.370;2023-05-08T13:20:02;29.50;99.90
12602;DHT22;30282;16.436;99.370;2023-05-08T13:22:32;29.60;99.90
12602;DHT22;30282;16.436;99.370;2023-05-08T13:25:03;29.80;99.90
12602;DHT22;30282;16.436;99.370;2023-05-08T13:27:32;29.90;99.90
12602;DHT22;30282;16.436;99.370;2023-05-08T13:30:02;30.00;99.90
12602;DHT22;30282;16.436;99.370;2023-05-08T13:32:31;30.10;99.90
12602;DHT22;30282;16.436;99.370;2023-05-08T13:35:01;30.00;99.90
12602;DHT22;30282;16.436;99.370;2023-05-08T13:37:30;30.00;99.90
12602;DHT22;30282;16.436;99.370;2023-05-08T13:40:00;30.10;99.90
12602;DHT22;30282;16.436;99.370;2023-05-08T13:42:32;30.10;99.90
12602;DHT22;30282;16.436;99.370;2023-05-08T13:45:01;30.20;99.90
12602;DHT22;30282;16.436;99.370;2023-05-08T13:47:30;30.20;99.90
12602;DHT22;30282;16.436;99.370;2023-05-08T13:50:00;30.20;99.90
12602;DHT22;30282;16.436;99.370;2023-05-08T13:52:30;30.30;99.90
12602;DHT22;30282;16.436;99.370;2023-05-08T13:54:59;30.40;99.90
12602;DHT22;30282;16.436;99.370;2023-05-08T13:57:34;30.40;99.90
12602;DHT22;30282;16.436;99.370;2023-05-08T14:00:05;30.40;99.90
12602;DHT22;30282;16.436;99.370;2023-05-08T14:02:35;30.40;99.90
12602;DHT22;30282;16.436;99.370;2023-05-08T14:05:05;30.50;99.90
12602;DHT22;30282;16.436;99.370;2023-05-08T14:07:35;30.40;99.90
12602;DHT22;30282;16.436;99.370;2023-05-08T14:10:05;30.50;99.90
12602;DHT22;30282;16.436;99.370;2023-05-08T14:12:36;30.50;99.90
12602;DHT22;30282;16.436;99.370;2023-05-08T14:15:07;30.50;99.90
12602;DHT22;30282;16.436;99.370;2023-05-08T14:17:37;30.60;99.90
12602;DHT22;30282;16.436;99.370;2023-05-08T14:20:08;30.60;99.90
12602;DHT22;30282;16.436;99.370;2023-05-08T14:22:38;30.50;99.90
12602;DHT22;30282;16.436;99.370;2023-05-08T14:25:08;30.40;99.90
12602;DHT22;30282;16.436;99.370;2023-05-08T14:27:39;30.40;99.90
12602;DHT22;30282;16.436;99.370;2023-05-08T14:30:09;30.40;99.90
12602;DHT22;30282;16.436;99.370;2023-05-08T14:32:42;30.40;99.90
12602;DHT22;30282;16.436;99.370;2023-05-08T14:35:11;30.40;99.90
12602;DHT22;30282;16.436;99.370;2023-05-08T14:37:44;30.30;99.90
12602;DHT22;30282;16.436;99.370;2023-05-08T14:40:13;30.30;99.90
12602;DHT22;30282;16.436;99.370;2023-05-08T14:42:44;30.30;99.90
12602;DHT22;30282;16.436;99.370;2023-05-08T14:45:16;30.30;99.90
12602;DHT22;30282;16.436;99.370;2023-05-08T14:47:46;30.30;99.90
12602;DHT22;30282;16.436;99.370;2023-05-08T14:50:21;30.30;99.90
12602;DHT22;30282;16.436;99.370;2023-05-08T14:52:52;30.20;99.90
12602;DHT22;30282;16.436;99.370;2023-05-08T14:55:22;30.20;99.90
12602;DHT22;30282;16.436;99.370;2023-05-08T14:57:56;30.20;99.90
12602;DHT22;30282;16.436;99.370;2023-05-08T15:00:30;30.20;99.90
12602;DHT22;30282;16.436;99.370;2023-05-08T15:03:00;30.10;99.90
12602;DHT22;30282;16.436;99.370;2023-05-08T15:05:29;30.10;99.90
12602;DHT22;30282;16.436;99.370;2023-05-08T15:07:59;30.10;99.90
12602;DHT22;30282;16.436;99.370;2023-05-08T15:10:28;30.00;99.90
12602;DHT22;30282;16.436;99.370;2023-05-08T15:12:59;29.90;99.90
12602;DHT22;30282;16.436;99.370;2023-05-08T15:15:29;29.60;99.90
12602;DHT22;30282;16.436;99.370;2023-05-08T15:17:58;29.50;99.90
12602;DHT22;30282;16.436;99.370;2023-05-08T15:20:28;29.50;99.90
12602;DHT22;30282;16.436;99.370;2023-05-08T15:22:57;29.60;99.90
12602;DHT22;30282;16.436;99.370;2023-05-08T15:25:27;29.70;99.90
12602;DHT22;30282;16.436;99.370;2023-05-08T15:27:58;29.70;99.90
12602;DHT22;30282;16.436;99.370;2023-05-08T15:30:27;29.60;99.90
12602;DHT22;30282;16.436;99.370;2023-05-08T15:32:57;29.60;99.90
12602;DHT22;30282;16.436;99.370;2023-05-08T15:35:26;29.70;99.90
12602;DHT22;30282;16.436;99.370;2023-05-08T15:38:00;29.70;99.90
12602;DHT22;30282;16.436;99.370;2023-05-08T15:40:31;29.70;99.90
12602;DHT22;30282;16.436;99.370;2023-05-08T15:43:03;29.40;99.90
12602;DHT22;30282;16.436;99.370;2023-05-08T15:45:32;29.20;99.90
12602;DHT22;30282;16.436;99.370;2023-05-08T15:48:03;29.10;99.90
12602;DHT22;30282;16.436;99.370;2023-05-08T15:50:33;29.00;99.90